Time;durP1;ratioP1;P1;durP2;ratioP2;P2;SDS_P1;SDS_P2;PMS_P1;PMS_P2;Temp;Humidity;BMP_temperature;BMP_pressure;BME280_temperature;BME280_humidity;BME280_pressure;Samples;Min_cycle;Max_cycle;Signal;HPM_P1;HPM_P2
2023/11/03 00:01:21;;;;;;;;;;;;;;;9.35;76.87;95256.16;5067877;28;20011;-82
2023/11/03 00:04:11;;;;;;;;;;;;;;;10.03;74.98;95259.66;5064328;28;20019;-83
2023/11/03 00:06:59;;;;;;;;;;;;;;;10.10;74.89;95248.09;5071135;28;19994;-82
2023/11/03 00:09:48;;;;;;;;;;;;;;;10.32;73.84;95244.47;5066170;28;19925;-83
2023/11/03 00:12:36;;;;;;;;;;;;;;;10.28;73.74;95226.56;5061152;28;20630;-81
2023/11/03 00:15:26;;;;;;;;;;;;;;;10.41;73.46;95220.50;5065346;28;19925;-81
2023/11/03 00:18:14;;;;;;;;;;;;;;;10.17;73.91;95221.84;5065153;28;20384;-82
2023/11/03 00:21:04;;;;;;;;;;;;;;;10.12;74.26;95222.19;5063364;28;19932;-82
2023/11/03 00:23:52;;;;;;;;;;;;;;;10.19;73.71;95224.16;5070094;28;19924;-82
2023/11/03 00:26:41;;;;;;;;;;;;;;;10.09;74.10;95227.56;5062376;28;19924;-83
2023/11/03 00:29:29;;;;;;;;;;;;;;;10.16;74.15;95230.31;5068621;28;20406;-81
2023/11/03 00:32:18;;;;;;;;;;;;;;;10.30;73.47;95233.22;5073730;28;19936;-82
2023/11/03 00:35:08;;;;;;;;;;;;;;;10.30;73.67;95227.78;5070332;28;19935;-82
2023/11/03 00:38:00;;;;;;;;;;;;;;;10.34;73.46;95234.03;5067512;28;19925;-82
2023/11/03 00:40:48;;;;;;;;;;;;;;;10.27;72.98;95230.44;5071614;28;19925;-83
2023/11/03 00:43:37;;;;;;;;;;;;;;;10.15;73.59;95234.97;5062076;28;20509;-82
2023/11/03 00:46:25;;;;;;;;;;;;;;;10.08;74.08;95224.06;5062395;28;19925;-82
2023/11/03 00:49:13;;;;;;;;;;;;;;;10.11;74.10;95200.81;5084903;28;20007;-82
2023/11/03 00:52:02;;;;;;;;;;;;;;;10.06;74.36;95160.47;5070073;28;19987;-83
2023/11/03 00:54:51;;;;;;;;;;;;;;;10.02;74.37;95184.88;5073028;28;20440;-83
2023/11/03 00:57:39;;;;;;;;;;;;;;;9.96;74.46;95227.84;5071620;28;19933;-84
2023/11/03 01:00:28;;;;;;;;;;;;;;;9.93;74.44;95241.34;5081872;28;20134;-83
2023/11/03 01:03:17;;;;;;;;;;;;;;;9.91;74.38;95230.09;5066574;28;20392;-83
2023/11/03 01:06:07;;;;;;;;;;;;;;;10.06;74.51;95217.44;5081321;28;20300;-83
2023/11/03 01:08:57;;;;;;;;;;;;;;;9.94;74.82;95203.00;5060712;28;19929;-83
2023/11/03 01:11:47;;;;;;;;;;;;;;;9.94;74.50;95218.50;5078050;28;19924;-83
2023/11/03 01:14:35;;;;;;;;;;;;;;;10.01;74.47;95223.19;5070150;28;19932;-83
2023/11/03 01:17:28;;;;;;;;;;;;;;;10.11;73.95;95223.31;5077224;28;20042;-82
2023/11/03 01:20:19;;;;;;;;;;;;;;;10.12;73.50;95227.59;5070518;28;19936;-83
2023/11/03 01:23:08;;;;;;;;;;;;;;;10.14;73.56;95232.66;5065440;28;19924;-82
2023/11/03 01:25:56;;;;;;;;;;;;;;;10.05;73.78;95224.03;5073247;28;19929;-83
2023/11/03 01:28:46;;;;;;;;;;;;;;;10.14;73.37;95232.66;5082435;28;20414;-82
2023/11/03 01:31:37;;;;;;;;;;;;;;;10.00;74.07;95232.50;5081076;28;20023;-83
2023/11/03 01:34:25;;;;;;;;;;;;;;;9.89;73.92;95225.03;5085315;28;19924;-84
2023/11/03 01:37:14;;;;;;;;;;;;;;;10.07;73.67;95224.44;5083551;28;19924;-84
2023/11/03 01:40:07;;;;;;;;;;;;;;;10.02;73.17;95227.50;5080132;28;19928;-82
2023/11/03 01:42:55;;;;;;;;;;;;;;;10.01;73.25;95217.78;5069909;28;19924;-82
2023/11/03 01:45:45;;;;;;;;;;;;;;;9.85;73.97;95202.50;5087489;28;20299;-84
2023/11/03 01:48:33;;;;;;;;;;;;;;;9.74;74.06;95198.13;5080754;28;20097;-83
2023/11/03 01:51:22;;;;;;;;;;;;;;;9.74;74.29;95212.47;5068681;28;20015;-83
2023/11/03 01:54:11;;;;;;;;;;;;;;;9.82;73.62;95216.84;5076164;28;19977;-83
2023/11/03 01:57:00;;;;;;;;;;;;;;;9.85;73.58;95226.91;5071661;28;20574;-83
2023/11/03 01:59:48;;;;;;;;;;;;;;;9.90;73.41;95237.44;5072348;28;19974;-83
2023/11/03 02:02:39;;;;;;;;;;;;;;;9.91;73.17;95233.59;5061935;28;19948;-83
2023/11/03 02:05:27;;;;;;;;;;;;;;;9.89;72.92;95225.03;5072280;28;19924;-83
2023/11/03 02:08:15;;;;;;;;;;;;;;;9.77;73.67;95224.53;5085617;28;19943;-83
2023/11/03 02:11:03;;;;;;;;;;;;;;;9.81;73.08;95223.41;5074109;28;20590;-83
2023/11/03 02:13:51;;;;;;;;;;;;;;;9.68;73.20;95220.16;5083996;28;19925;-83
2023/11/03 02:16:39;;;;;;;;;;;;;;;9.73;73.53;95207.44;5067639;28;19924;-82
2023/11/03 02:19:29;;;;;;;;;;;;;;;9.66;73.75;95202.72;5091970;28;19928;-82
2023/11/03 02:22:17;;;;;;;;;;;;;;;9.70;73.08;95204.31;5084954;28;19928;-82
2023/11/03 02:25:07;;;;;;;;;;;;;;;9.35;74.75;95188.44;5074023;28;19924;-83
2023/11/03 02:27:55;;;;;;;;;;;;;;;9.24;75.44;95182.09;5078499;28;19924;-84
2023/11/03 02:30:43;;;;;;;;;;;;;;;9.47;74.34;95195.53;5052692;28;20456;-83
2023/11/03 02:33:31;;;;;;;;;;;;;;;9.45;74.59;95198.63;5065052;28;20007;-83
2023/11/03 02:36:19;;;;;;;;;;;;;;;9.39;74.70;95215.59;5069888;28;20379;-83
2023/11/03 02:39:07;;;;;;;;;;;;;;;9.54;74.12;95213.81;5059056;28;19951;-83
2023/11/03 02:41:56;;;;;;;;;;;;;;;9.49;73.88;95225.00;5081785;28;19924;-83
2023/11/03 02:44:44;;;;;;;;;;;;;;;9.47;74.33;95214.50;5079261;28;20350;-83
2023/11/03 02:47:33;;;;;;;;;;;;;;;9.44;74.36;95196.28;5068717;28;19970;-83
2023/11/03 02:50:21;;;;;;;;;;;;;;;9.52;73.83;95203.34;5077366;28;19931;-82
2023/11/03 02:53:09;;;;;;;;;;;;;;;9.40;73.76;95206.28;5077840;28;19981;-83
2023/11/03 02:56:00;;;;;;;;;;;;;;;9.42;73.70;95209.41;5056348;28;19931;-83
2023/11/03 02:58:50;;;;;;;;;;;;;;;9.40;73.24;95196.22;5067626;28;20404;-82
2023/11/03 03:02:04;;;;;;;;;;;;;;;9.39;73.47;95200.09;5073814;28;19947;-83
2023/11/03 03:04:54;;;;;;;;;;;;;;;9.02;74.68;95191.13;5070546;28;19970;-83
2023/11/03 03:07:45;;;;;;;;;;;;;;;9.15;74.18;95185.09;5067873;28;19931;-83
2023/11/03 03:10:33;;;;;;;;;;;;;;;9.19;74.14;95193.28;5067567;28;19940;-82
2023/11/03 03:13:21;;;;;;;;;;;;;;;9.18;74.28;95186.28;5060316;28;20379;-84
2023/11/03 03:16:12;;;;;;;;;;;;;;;9.12;74.07;95193.19;5057448;28;20391;-83
2023/11/03 03:19:00;;;;;;;;;;;;;;;9.03;74.26;95192.69;5062242;28;19977;-83
2023/11/03 03:21:49;;;;;;;;;;;;;;;9.27;73.63;95186.81;5069388;28;19928;-82
2023/11/03 03:24:37;;;;;;;;;;;;;;;9.06;73.89;95181.91;5069171;28;19931;-83
2023/11/03 03:27:25;;;;;;;;;;;;;;;9.14;73.90;95180.81;5077179;28;20009;-84
2023/11/03 03:30:14;;;;;;;;;;;;;;;9.06;73.71;95171.06;5058406;28;20395;-83
2023/11/03 03:33:03;;;;;;;;;;;;;;;9.07;74.04;95171.84;5061790;28;20059;-83
2023/11/03 03:35:51;;;;;;;;;;;;;;;8.99;74.35;95173.66;5061604;28;20380;-85
2023/11/03 03:38:40;;;;;;;;;;;;;;;8.88;75.02;95170.81;5066467;28;19929;-84
2023/11/03 03:41:27;;;;;;;;;;;;;;;8.91;74.95;95180.94;5066957;28;19925;-84
2023/11/03 03:44:16;;;;;;;;;;;;;;;8.97;74.67;95180.63;5063149;28;19933;-84
2023/11/03 03:47:04;;;;;;;;;;;;;;;8.95;74.54;95181.00;5069308;28;19936;-83
2023/11/03 03:49:54;;;;;;;;;;;;;;;9.03;74.37;95176.44;5064536;28;19971;-84
2023/11/03 03:52:42;;;;;;;;;;;;;;;9.08;73.91;95178.81;5061679;28;20015;-84
2023/11/03 03:55:30;;;;;;;;;;;;;;;8.97;74.52;95184.09;5075179;28;19940;-83
2023/11/03 03:58:18;;;;;;;;;;;;;;;9.01;74.01;95181.44;5061461;28;19929;-83
2023/11/03 04:01:07;;;;;;;;;;;;;;;8.63;74.55;95177.84;5065375;28;19925;-84
2023/11/03 04:03:55;;;;;;;;;;;;;;;8.95;74.16;95167.44;5056528;28;19925;-84
2023/11/03 04:06:46;;;;;;;;;;;;;;;8.90;73.26;95168.53;5078670;28;20377;-83
2023/11/03 04:09:34;;;;;;;;;;;;;;;8.87;73.93;95158.44;5061261;28;19931;-83
2023/11/03 04:12:22;;;;;;;;;;;;;;;8.87;73.88;95144.13;5073130;28;19932;-83
2023/11/03 04:15:11;;;;;;;;;;;;;;;8.84;74.00;95148.34;5076766;28;20082;-84
2023/11/03 04:17:59;;;;;;;;;;;;;;;8.92;73.80;95139.16;5063308;28;21563;-83
2023/11/03 04:20:47;;;;;;;;;;;;;;;8.81;74.12;95132.84;5071335;28;20309;-82
2023/11/03 04:23:36;;;;;;;;;;;;;;;8.74;74.40;95131.97;5071131;28;19936;-83
2023/11/03 04:26:24;;;;;;;;;;;;;;;8.96;73.87;95133.81;5079342;28;19931;-84
2023/11/03 04:29:12;;;;;;;;;;;;;;;9.08;73.02;95135.47;5094351;28;20320;-83
2023/11/03 04:32:00;;;;;;;;;;;;;;;8.79;73.64;95143.25;5086725;28;20054;-84
2023/11/03 04:34:48;;;;;;;;;;;;;;;8.87;73.82;95144.13;5080572;28;19925;-84
2023/11/03 04:37:36;;;;;;;;;;;;;;;8.93;73.46;95140.72;5079335;28;19924;-83
2023/11/03 04:40:26;;;;;;;;;;;;;;;8.94;73.34;95141.50;5079516;28;19930;-83
2023/11/03 04:43:14;;;;;;;;;;;;;;;8.92;72.95;95150.00;5076640;28;20548;-84
2023/11/03 04:46:03;;;;;;;;;;;;;;;8.92;73.03;95152.69;5075552;28;19924;-81
2023/11/03 04:48:52;;;;;;;;;;;;;;;8.99;72.92;95151.22;5069236;28;19924;-83
2023/11/03 04:51:40;;;;;;;;;;;;;;;8.99;72.33;95152.00;5089970;28;20438;-82
2023/11/03 04:54:29;;;;;;;;;;;;;;;8.93;72.54;95148.84;5077121;28;19935;-84
2023/11/03 04:57:20;;;;;;;;;;;;;;;8.77;73.28;95147.47;5089989;28;19931;-83
2023/11/03 05:00:10;;;;;;;;;;;;;;;8.87;72.70;95150.31;5086880;28;19924;-83
2023/11/03 05:02:58;;;;;;;;;;;;;;;8.85;73.00;95143.72;5083859;28;20038;-82
2023/11/03 05:05:48;;;;;;;;;;;;;;;8.65;73.54;95151.19;5089320;28;20400;-84
2023/11/03 05:08:36;;;;;;;;;;;;;;;8.84;73.38;95153.78;5077963;28;19928;-84
2023/11/03 05:11:24;;;;;;;;;;;;;;;8.99;72.51;95151.22;5076325;28;19932;-83
2023/11/03 05:14:14;;;;;;;;;;;;;;;9.10;72.25;95161.03;5077884;28;20375;-84
2023/11/03 05:17:03;;;;;;;;;;;;;;;8.92;73.28;95155.41;5080975;28;19925;-83
2023/11/03 05:19:51;;;;;;;;;;;;;;;8.88;73.29;95162.69;5073181;28;20400;-85
2023/11/03 05:22:39;;;;;;;;;;;;;;;9.13;71.82;95170.38;5067293;28;20307;-84
2023/11/03 05:25:27;;;;;;;;;;;;;;;9.28;71.19;95174.81;5070719;28;20284;-83
2023/11/03 05:28:15;;;;;;;;;;;;;;;9.40;70.64;95176.50;5057642;28;19930;-84
2023/11/03 05:31:07;;;;;;;;;;;;;;;9.17;70.99;95168.50;5073087;28;20011;-83
2023/11/03 05:33:59;;;;;;;;;;;;;;;9.53;69.99;95155.31;5061340;28;19972;-83
2023/11/03 05:36:47;;;;;;;;;;;;;;;9.71;69.33;95148.16;5074557;28;19928;-83
2023/11/03 05:39:35;;;;;;;;;;;;;;;9.70;69.25;95155.53;5066902;28;19924;-82
2023/11/03 05:42:23;;;;;;;;;;;;;;;9.46;69.92;95145.19;5072669;28;19924;-84
2023/11/03 05:45:12;;;;;;;;;;;;;;;9.55;68.87;95147.63;5074442;28;19931;-83
2023/11/03 05:48:01;;;;;;;;;;;;;;;9.56;68.64;95160.00;5058030;28;20014;-83
2023/11/03 05:50:50;;;;;;;;;;;;;;;9.50;68.73;95161.50;5071179;28;19931;-83
2023/11/03 05:53:38;;;;;;;;;;;;;;;9.59;67.93;95162.00;5068423;28;19932;-81
2023/11/03 05:56:27;;;;;;;;;;;;;;;9.59;68.11;95165.47;5072038;28;19925;-81
2023/11/03 05:59:17;;;;;;;;;;;;;;;9.19;69.28;95169.66;5075087;28;19924;-83
2023/11/03 06:02:05;;;;;;;;;;;;;;;9.15;69.44;95187.03;5068260;28;19924;-82
2023/11/03 06:04:55;;;;;;;;;;;;;;;9.20;69.52;95194.81;5070649;28;20395;-83
2023/11/03 06:07:43;;;;;;;;;;;;;;;8.85;70.03;95195.94;5078598;28;20307;-84
2023/11/03 06:10:31;;;;;;;;;;;;;;;9.10;70.27;95217.13;5065639;28;20538;-84
2023/11/03 06:13:20;;;;;;;;;;;;;;;8.90;70.75;95222.69;5067312;28;19924;-86
2023/11/03 06:16:08;;;;;;;;;;;;;;;9.09;70.05;95229.13;5062690;28;20360;-83
2023/11/03 06:18:56;;;;;;;;;;;;;;;8.76;71.47;95232.53;5056753;28;19988;-87
2023/11/03 06:21:46;;;;;;;;;;;;;;;9.06;69.96;95229.88;5069772;28;19924;-79
2023/11/03 06:24:34;;;;;;;;;;;;;;;9.05;69.74;95233.69;5056658;28;20021;-77
2023/11/03 06:27:22;;;;;;;;;;;;;;;8.87;69.70;95236.94;5064702;28;20013;-80
2023/11/03 06:30:11;;;;;;;;;;;;;;;8.92;69.75;95252.88;5061957;28;19924;-79
2023/11/03 06:32:59;;;;;;;;;;;;;;;8.90;70.02;95267.94;5067127;28;20392;-78
2023/11/03 06:35:47;;;;;;;;;;;;;;;8.94;69.52;95252.50;5043579;28;19925;-81
2023/11/03 06:38:36;;;;;;;;;;;;;;;9.02;69.51;95262.31;5051227;28;19931;-78
2023/11/03 06:41:24;;;;;;;;;;;;;;;8.85;69.55;95262.84;5057178;28;19931;-78
2023/11/03 06:44:14;;;;;;;;;;;;;;;8.53;70.41;95254.22;5063445;28;19928;-78
2023/11/03 06:47:02;;;;;;;;;;;;;;;8.99;69.30;95260.31;5050606;28;20068;-79
2023/11/03 06:49:50;;;;;;;;;;;;;;;8.74;69.01;95254.56;5048578;28;19932;-79
2023/11/03 06:52:44;;;;;;;;;;;;;;;8.70;70.31;95261.84;5064849;28;19936;-78
2023/11/03 06:55:35;;;;;;;;;;;;;;;8.93;69.25;95270.69;5065702;28;19925;-79
2023/11/03 06:58:23;;;;;;;;;;;;;;;8.89;69.99;95283.41;5069121;28;20257;-81
2023/11/03 07:01:12;;;;;;;;;;;;;;;8.95;69.66;95280.38;5056270;28;20019;-77
2023/11/03 07:04:01;;;;;;;;;;;;;;;9.23;68.97;95272.66;5061041;28;20019;-80
2023/11/03 07:06:52;;;;;;;;;;;;;;;9.22;69.11;95270.31;5061122;28;20013;-79
2023/11/03 07:09:40;;;;;;;;;;;;;;;9.06;69.72;95273.19;5066953;28;19931;-86
2023/11/03 07:12:31;;;;;;;;;;;;;;;9.21;68.34;95283.06;5050869;28;21480;-80
2023/11/03 07:15:20;;;;;;;;;;;;;;;9.05;69.29;95277.03;5065537;28;19924;-79
2023/11/03 07:18:09;;;;;;;;;;;;;;;9.35;68.26;95277.84;5068391;28;19924;-82
2023/11/03 07:21:00;;;;;;;;;;;;;;;9.36;67.09;95273.97;5067337;28;20019;-90
2023/11/03 07:23:49;;;;;;;;;;;;;;;9.36;66.83;95273.97;5068178;28;20456;-88
2023/11/03 07:26:37;;;;;;;;;;;;;;;9.31;67.00;95268.88;5075894;28;19931;-87
2023/11/03 07:29:26;;;;;;;;;;;;;;;9.36;67.32;95268.56;5077084;28;20371;-84
2023/11/03 07:32:14;;;;;;;;;;;;;;;9.48;66.17;95266.75;5084120;28;19932;-79
2023/11/03 07:35:03;;;;;;;;;;;;;;;9.51;65.15;95271.47;5082081;28;20380;-78
2023/11/03 07:37:51;;;;;;;;;;;;;;;9.30;66.72;95283.59;5060386;28;20304;-78
2023/11/03 07:40:39;;;;;;;;;;;;;;;9.27;66.73;95297.88;5069215;28;20132;-78
2023/11/03 07:43:27;;;;;;;;;;;;;;;9.17;66.85;95302.00;5080342;28;19924;-78
2023/11/03 07:46:17;;;;;;;;;;;;;;;9.27;66.92;95311.44;5085430;28;19924;-78
2023/11/03 07:49:06;;;;;;;;;;;;;;;8.81;69.34;95316.91;5069652;28;19989;-78
2023/11/03 07:51:55;;;;;;;;;;;;;;;8.58;70.73;95316.16;5072286;28;19924;-78
2023/11/03 07:54:43;;;;;;;;;;;;;;;8.61;71.20;95312.72;5072750;28;19950;-78
2023/11/03 07:57:31;;;;;;;;;;;;;;;8.72;70.80;95307.47;5072524;28;19924;-78
2023/11/03 08:00:22;;;;;;;;;;;;;;;9.00;70.11;95301.72;5075847;28;19924;-78
2023/11/03 08:03:13;;;;;;;;;;;;;;;9.11;69.41;95302.69;5077522;28;19966;-78
2023/11/03 08:06:02;;;;;;;;;;;;;;;8.82;69.55;95306.88;5067093;28;19940;-80
2023/11/03 08:08:53;;;;;;;;;;;;;;;8.76;69.30;95292.88;5070094;28;19978;-78
2023/11/03 08:11:41;;;;;;;;;;;;;;;8.97;69.68;95291.63;5067133;28;19925;-76
2023/11/03 08:14:56;;;;;;;;;;;;;;;9.13;69.60;95292.25;5071136;28;19924;-80
2023/11/03 08:17:49;;;;;;;;;;;;;;;9.25;67.84;95305.56;5089322;28;19931;-81
2023/11/03 08:20:39;;;;;;;;;;;;;;;9.22;67.87;95309.03;5073499;28;20034;-77
2023/11/03 08:23:27;;;;;;;;;;;;;;;9.23;67.66;95298.97;5076220;28;19976;-78
2023/11/03 08:26:16;;;;;;;;;;;;;;;9.26;67.78;95309.84;5072515;28;20295;-77
2023/11/03 08:29:05;;;;;;;;;;;;;;;9.17;67.06;95315.53;5077620;28;19927;-79
2023/11/03 08:31:56;;;;;;;;;;;;;;;9.16;67.28;95321.31;5077791;28;19928;-78
2023/11/03 08:34:44;;;;;;;;;;;;;;;9.13;66.78;95317.41;5084006;28;19935;-77
2023/11/03 08:37:37;;;;;;;;;;;;;;;9.14;66.56;95305.41;5085763;28;19928;-77
2023/11/03 08:40:25;;;;;;;;;;;;;;;9.10;65.86;95311.94;5074959;28;19935;-76
2023/11/03 08:43:14;;;;;;;;;;;;;;;9.14;65.88;95316.25;5080029;28;20574;-77
2023/11/03 08:46:02;;;;;;;;;;;;;;;9.10;64.67;95325.47;5079402;28;20067;-79
2023/11/03 08:48:51;;;;;;;;;;;;;;;9.13;65.01;95328.25;5085474;28;19924;-77
2023/11/03 08:51:39;;;;;;;;;;;;;;;9.09;64.28;95326.63;5084978;28;19974;-76
2023/11/03 08:54:28;;;;;;;;;;;;;;;9.08;64.03;95328.56;5071058;28;19947;-77
2023/11/03 08:57:18;;;;;;;;;;;;;;;9.16;64.06;95315.88;5074555;28;19975;-78
2023/11/03 09:00:09;;;;;;;;;;;;;;;9.15;64.30;95320.53;5073025;28;19924;-79
2023/11/03 09:02:57;;;;;;;;;;;;;;;9.10;64.16;95322.75;5086988;28;19932;-76
2023/11/03 09:05:45;;;;;;;;;;;;;;;9.08;64.15;95320.44;5077097;28;19988;-76
2023/11/03 09:08:34;;;;;;;;;;;;;;;9.09;64.42;95327.41;5079354;28;19924;-76
2023/11/03 09:11:23;;;;;;;;;;;;;;;9.04;64.43;95337.75;5089524;28;19946;-76
2023/11/03 09:14:11;;;;;;;;;;;;;;;9.07;65.09;95337.06;5082812;28;20427;-76
2023/11/03 09:17:00;;;;;;;;;;;;;;;9.05;64.16;95342.03;5088582;28;19946;-77
2023/11/03 09:19:48;;;;;;;;;;;;;;;9.05;64.81;95345.53;5090508;28;19924;-76
2023/11/03 09:22:36;;;;;;;;;;;;;;;9.05;64.95;95348.22;5084807;28;19963;-76
2023/11/03 09:25:27;;;;;;;;;;;;;;;9.09;65.14;95354.47;5076238;28;19931;-77
2023/11/03 09:28:16;;;;;;;;;;;;;;;9.12;65.19;95350.28;5074199;28;20376;-77
2023/11/03 09:31:05;;;;;;;;;;;;;;;9.11;64.85;95340.59;5085497;28;19939;-77
2023/11/03 09:33:55;;;;;;;;;;;;;;;9.15;65.20;95342.19;5073314;28;19994;-77
2023/11/03 09:36:43;;;;;;;;;;;;;;;9.18;65.21;95346.91;5070828;28;20323;-76
2023/11/03 09:39:33;;;;;;;;;;;;;;;9.30;65.62;95345.91;5067339;28;19924;-80
2023/11/03 09:42:24;;;;;;;;;;;;;;;9.35;64.73;95356.41;5073417;28;19986;-79
2023/11/03 09:45:15;;;;;;;;;;;;;;;9.43;65.69;95351.91;5072672;28;19963;-80
2023/11/03 09:48:04;;;;;;;;;;;;;;;9.35;66.08;95363.78;5065496;28;20372;-79
2023/11/03 09:50:52;;;;;;;;;;;;;;;9.48;65.01;95361.63;5069692;28;19932;-76
2023/11/03 09:53:42;;;;;;;;;;;;;;;9.58;64.55;95369.13;5076153;28;19977;-76
2023/11/03 09:56:30;;;;;;;;;;;;;;;9.55;65.53;95364.44;5072339;28;20065;-76
2023/11/03 09:59:18;;;;;;;;;;;;;;;9.62;64.49;95367.25;5088869;28;19967;-75
2023/11/03 10:02:10;;;;;;;;;;;;;;;9.55;64.93;95378.00;5083566;28;19967;-76
2023/11/03 10:05:02;;;;;;;;;;;;;;;9.58;64.51;95364.47;5086002;28;20371;-75
2023/11/03 10:07:54;;;;;;;;;;;;;;;9.63;65.31;95363.38;5083382;28;19931;-76
2023/11/03 10:10:46;;;;;;;;;;;;;;;9.61;65.57;95362.97;5071420;28;20033;-75
2023/11/03 10:13:36;;;;;;;;;;;;;;;9.63;65.09;95360.66;5069530;28;19931;-76
2023/11/03 10:16:24;;;;;;;;;;;;;;;9.56;65.20;95358.66;5075256;28;19924;-76
2023/11/03 10:19:13;;;;;;;;;;;;;;;9.38;67.08;95355.72;5086511;28;19932;-75
2023/11/03 10:22:08;;;;;;;;;;;;;;;9.62;65.48;95348.28;5081526;27;19967;-76
2023/11/03 10:24:57;;;;;;;;;;;;;;;9.66;64.72;95347.16;5088518;28;19931;-76
2023/11/03 10:27:46;;;;;;;;;;;;;;;9.63;64.03;95352.53;5086990;28;19939;-76
2023/11/03 10:30:37;;;;;;;;;;;;;;;9.62;64.29;95348.28;5088602;28;20302;-78
2023/11/03 10:33:25;;;;;;;;;;;;;;;9.65;64.27;95353.75;5090167;28;20373;-77
2023/11/03 10:36:15;;;;;;;;;;;;;;;9.54;64.11;95352.06;5083808;28;19993;-77
2023/11/03 10:39:03;;;;;;;;;;;;;;;9.62;64.39;95359.13;5072932;28;19927;-77
2023/11/03 10:41:51;;;;;;;;;;;;;;;9.62;63.63;95359.13;5083865;28;19928;-76
2023/11/03 10:44:40;;;;;;;;;;;;;;;9.66;63.98;95358.00;5087495;28;19932;-76
2023/11/03 10:47:29;;;;;;;;;;;;;;;9.62;63.35;95348.28;5088631;28;19931;-76
2023/11/03 10:50:18;;;;;;;;;;;;;;;9.64;64.04;95352.19;5076456;28;19971;-76
2023/11/03 10:53:14;;;;;;;;;;;;;;;9.60;63.40;95353.28;5073274;28;19953;-77
2023/11/03 10:56:04;;;;;;;;;;;;;;;9.64;63.71;95359.50;5072224;28;19924;-76
2023/11/03 10:59:09;;;;;;;;;;;;;;;9.67;63.16;95364.22;5091253;28;19924;-77
2023/11/03 11:01:58;;;;;;;;;;;;;;;9.71;63.97;95362.34;5066806;28;20429;-77
2023/11/03 11:04:47;;;;;;;;;;;;;;;9.75;63.65;95360.47;5084483;28;19928;-76
2023/11/03 11:07:36;;;;;;;;;;;;;;;9.80;62.78;95359.34;5088322;28;20508;-75
2023/11/03 11:10:36;;;;;;;;;;;;;;;9.79;62.81;95352.34;5074339;28;19923;-75
2023/11/03 11:13:25;;;;;;;;;;;;;;;9.76;63.15;95351.19;5087233;28;20418;-76
2023/11/03 11:16:13;;;;;;;;;;;;;;;9.70;62.86;95344.53;5090798;28;19924;-77
2023/11/03 11:19:02;;;;;;;;;;;;;;;9.68;63.42;95341.38;5084160;28;19924;-76
2023/11/03 11:21:51;;;;;;;;;;;;;;;9.67;63.84;95339.81;5068489;28;19962;-77
2023/11/03 11:24:39;;;;;;;;;;;;;;;9.65;63.43;95345.63;5076967;28;21490;-76
2023/11/03 11:27:29;;;;;;;;;;;;;;;9.57;63.78;95340.47;5076030;28;20302;-77
2023/11/03 11:30:17;;;;;;;;;;;;;;;9.53;64.01;95345.03;5048929;28;20486;-78
2023/11/03 11:33:05;;;;;;;;;;;;;;;9.51;64.41;95340.00;5057670;28;19924;-78
2023/11/03 11:35:54;;;;;;;;;;;;;;;9.53;64.49;95339.63;5063261;28;19924;-78
2023/11/03 11:38:42;;;;;;;;;;;;;;;9.52;64.18;95327.22;5065561;28;20013;-77
2023/11/03 11:41:31;;;;;;;;;;;;;;;9.56;63.90;95319.94;5065929;28;20399;-76
2023/11/03 11:44:22;;;;;;;;;;;;;;;9.60;64.46;95321.53;5053995;28;19932;-78
2023/11/03 11:47:13;;;;;;;;;;;;;;;9.62;63.64;95327.38;5069939;28;19947;-76
2023/11/03 11:50:04;;;;;;;;;;;;;;;9.55;63.18;95326.50;5052939;28;20395;-76
2023/11/03 11:52:52;;;;;;;;;;;;;;;9.53;63.27;95332.28;5053819;28;19925;-78
2023/11/03 11:55:40;;;;;;;;;;;;;;;9.56;63.53;95336.97;5048855;28;20344;-80
2023/11/03 11:58:29;;;;;;;;;;;;;;;9.54;63.56;95335.78;5054703;28;19931;-76
2023/11/03 12:01:18;;;;;;;;;;;;;;;9.53;63.48;95334.97;5052204;28;19933;-78
2023/11/03 12:04:06;;;;;;;;;;;;;;;9.56;63.64;95338.91;5064123;28;19924;-76
2023/11/03 12:06:55;;;;;;;;;;;;;;;9.56;63.79;95338.91;5065642;28;19932;-76
2023/11/03 12:09:43;;;;;;;;;;;;;;;9.59;64.22;95344.38;5069085;28;20295;-78
2023/11/03 12:12:31;;;;;;;;;;;;;;;9.64;63.77;95343.25;5063801;28;19956;-77
2023/11/03 12:15:20;;;;;;;;;;;;;;;9.69;63.79;95345.66;5065632;28;19924;-77
2023/11/03 12:18:11;;;;;;;;;;;;;;;9.72;63.49;95347.63;5069186;28;20383;-78
2023/11/03 12:21:00;;;;;;;;;;;;;;;9.75;63.33;95346.91;5067916;28;19925;-83
2023/11/03 12:23:48;;;;;;;;;;;;;;;9.86;63.05;95341.63;5067374;28;20026;-83
2023/11/03 12:26:36;;;;;;;;;;;;;;;9.81;62.57;95345.44;5074873;28;19924;-83
2023/11/03 12:29:28;;;;;;;;;;;;;;;9.76;63.06;95342.25;5083863;28;19975;-84
2023/11/03 12:32:17;;;;;;;;;;;;;;;9.73;62.35;95338.34;5090316;28;19931;-85
2023/11/03 12:35:11;;;;;;;;;;;;;;;9.77;62.89;95338.41;5095754;28;20406;-86
2023/11/03 12:38:01;;;;;;;;;;;;;;;9.78;63.60;95338.03;5092798;28;20066;-83
2023/11/03 12:40:50;;;;;;;;;;;;;;;9.79;63.34;95336.09;5076704;28;20407;-80
2023/11/03 12:43:40;;;;;;;;;;;;;;;9.83;63.07;95343.13;5077211;28;20470;-85
2023/11/03 12:46:29;;;;;;;;;;;;;;;9.85;62.84;95346.22;5074650;28;20383;-81
2023/11/03 12:49:21;;;;;;;;;;;;;;;9.87;62.99;95349.38;5091145;28;19924;-83
2023/11/03 12:52:17;;;;;;;;;;;;;;;9.86;63.02;95352.47;5084513;28;19925;-79
2023/11/03 12:55:05;;;;;;;;;;;;;;;9.85;62.89;95359.00;5077539;28;20402;-79
2023/11/03 12:57:56;;;;;;;;;;;;;;;9.87;63.02;95360.22;5074859;28;19928;-77
2023/11/03 13:00:48;;;;;;;;;;;;;;;9.90;63.05;95366.81;5070892;28;19924;-78
2023/11/03 13:03:38;;;;;;;;;;;;;;;9.84;62.45;95365.59;5091375;28;20332;-78
2023/11/03 13:06:29;;;;;;;;;;;;;;;9.82;63.07;95374.09;5074162;28;19925;-78
2023/11/03 13:09:23;;;;;;;;;;;;;;;9.85;63.41;95381.47;5088772;28;19924;-78
2023/11/03 13:12:12;;;;;;;;;;;;;;;9.81;63.45;95377.19;5088825;28;19928;-78
2023/11/03 13:15:01;;;;;;;;;;;;;;;9.84;63.15;95379.94;5086618;28;20007;-83
2023/11/03 13:17:49;;;;;;;;;;;;;;;9.85;63.31;95378.78;5087203;28;20371;-82
2023/11/03 13:20:37;;;;;;;;;;;;;;;9.85;63.03;95386.91;5088993;28;19924;-83
2023/11/03 13:23:27;;;;;;;;;;;;;;;9.83;63.04;95385.72;5083751;28;19939;-78
2023/11/03 13:26:17;;;;;;;;;;;;;;;9.86;63.17;95383.06;5080890;28;19931;-85
2023/11/03 13:29:06;;;;;;;;;;;;;;;9.84;62.77;95390.78;5084486;28;19976;-78
2023/11/03 13:31:54;;;;;;;;;;;;;;;9.84;62.87;95388.06;5070980;28;20392;-78
2023/11/03 13:34:42;;;;;;;;;;;;;;;9.84;62.68;95393.50;5074704;28;19924;-77
2023/11/03 13:37:30;;;;;;;;;;;;;;;9.82;62.39;95398.50;5078096;28;20307;-76
2023/11/03 13:40:20;;;;;;;;;;;;;;;9.91;62.61;95401.72;5090342;28;19953;-77
2023/11/03 13:43:09;;;;;;;;;;;;;;;9.97;63.25;95400.25;5065659;28;19942;-77
2023/11/03 13:45:57;;;;;;;;;;;;;;;9.93;62.22;95407.56;5093373;28;19931;-77
2023/11/03 13:48:48;;;;;;;;;;;;;;;9.90;62.41;95407.50;5092532;28;20414;-76
2023/11/03 13:51:38;;;;;;;;;;;;;;;9.87;62.59;95411.75;5087536;28;19974;-78
2023/11/03 13:54:26;;;;;;;;;;;;;;;9.84;62.72;95408.97;5083403;28;20425;-77
2023/11/03 13:57:14;;;;;;;;;;;;;;;9.84;62.58;95409.75;5079633;28;19924;-76
2023/11/03 14:00:06;;;;;;;;;;;;;;;9.82;63.01;95414.78;5086894;28;19924;-78
2023/11/03 14:02:59;;;;;;;;;;;;;;;9.84;62.82;95419.81;5089824;28;19971;-77
2023/11/03 14:05:47;;;;;;;;;;;;;;;9.84;62.62;95420.59;5088426;28;19928;-79
2023/11/03 14:08:35;;;;;;;;;;;;;;;9.87;63.00;95424.53;5075616;28;19925;-80
2023/11/03 14:11:28;;;;;;;;;;;;;;;9.89;62.68;95423.00;5075199;28;19933;-86
2023/11/03 14:14:16;;;;;;;;;;;;;;;9.94;62.96;95432.75;5078821;28;19924;-76
2023/11/03 14:17:07;;;;;;;;;;;;;;;9.88;63.00;95426.88;5085508;28;19931;-83
2023/11/03 14:19:55;;;;;;;;;;;;;;;9.89;62.56;95428.41;5084489;28;20387;-78
2023/11/03 14:22:44;;;;;;;;;;;;;;;9.87;62.38;95430.72;5071382;28;20051;-76
2023/11/03 14:25:32;;;;;;;;;;;;;;;9.91;62.55;95433.50;5085275;28;19992;-77
2023/11/03 14:28:20;;;;;;;;;;;;;;;9.92;62.15;95435.06;5066481;28;19928;-79
2023/11/03 14:31:09;;;;;;;;;;;;;;;9.97;62.25;95438.22;5068103;28;20059;-79
2023/11/03 14:33:59;;;;;;;;;;;;;;;10.02;61.59;95442.56;5069028;28;19924;-79
2023/11/03 14:36:50;;;;;;;;;;;;;;;10.02;61.59;95447.22;5060576;28;19929;-79
2023/11/03 14:39:39;;;;;;;;;;;;;;;10.05;61.63;95447.22;5055169;28;20379;-87
2023/11/03 14:42:27;;;;;;;;;;;;;;;10.10;61.24;95446.13;5067533;28;19931;-78
2023/11/03 14:45:19;;;;;;;;;;;;;;;10.10;61.78;95440.72;5056084;28;20033;-79
2023/11/03 14:48:09;;;;;;;;;;;;;;;10.17;61.29;95448.94;5063698;28;19925;-79
2023/11/03 14:50:58;;;;;;;;;;;;;;;10.18;61.27;95447.81;5076869;28;20291;-76